EST,Max TemperatureF,Mean TemperatureF,Min TemperatureF,Max Dew PointF,MeanDew PointF,Min DewpointF,Max Humidity, Mean Humidity, Min Humidity, Max Sea Level PressureIn, Mean Sea Level PressureIn, Min Sea Level PressureIn, Max VisibilityMiles, Mean VisibilityMiles, Min VisibilityMiles, Max Wind SpeedMPH, Mean Wind SpeedMPH, Max Gust SpeedMPH,PrecipitationIn, CloudCover, Events, WindDirDegrees
2014-1-1,25,20,15,21,15,7,88,75,61,30.39,30.30,30.20,10,7,1,12,4,18,T,6,Snow,238
2014-1-2,25,20,14,19,16,11,91,83,74,30.17,29.89,29.71,10,5,0,13,7,21,0.28,8,Fog-Snow,41
2014-1-3,14,5,-4,10,-1,-9,88,72,55,30.47,30.06,29.73,10,5,1,26,13,32,0.06,6,Snow,323
2014-1-4,26,11,-4,9,0,-10,79,60,40,30.45,30.35,30.26,10,10,9,16,7,24,0.02,1,Snow,217
2014-1-5,50,29,7,46,26,5,92,74,56,30.27,30.03,29.62,10,8,2,21,7,38,0.15,6,Rain,207
2014-1-6,54,30,6,49,31,-11,93,70,46,29.86,29.52,29.36,10,8,2,30,17,41,0.47,7,Rain-Snow,238
2014-1-7,6,1,-4,-8,-13,-18,62,53,44,30.38,30.16,29.87,10,10,10,30,16,37,0.00,1,,248
2014-1-8,18,10,2,4,-3,-8,75,61,46,30.53,30.47,30.38,10,10,10,13,7,23,0.00,3,,228
2014-1-9,30,21,11,13,9,4,84,62,39,30.65,30.56,30.47,10,10,9,13,4,17,0.00,3,,243
2014-1-10,38,31,23,34,26,11,92,71,50,30.51,30.35,30.12,10,6,1,14,4,16,0.06,7,Rain-Snow,248
2014-1-11,59,47,35,54,45,34,100,93,86,30.09,29.65,29.32,10,5,1,23,8,43,0.54,8,Rain,212
2014-1-12,45,39,33,37,28,25,83,71,59,30.06,29.79,29.45,10,10,10,25,13,31,T,7,Rain,252
2014-1-13,51,39,26,34,29,24,92,66,39,30.08,29.97,29.81,10,9,5,18,8,29,0.00,1,,219
2014-1-14,47,42,37,43,39,35,100,80,60,29.86,29.75,29.67,10,5,2,17,6,21,0.26,8,Rain,230
2014-1-15,48,38,28,38,30,27,100,79,57,29.93,29.89,29.85,10,4,0,18,7,23,0.00,4,Fog,247
2014-1-16,34,29,23,29,24,18,92,76,59,29.96,29.90,29.86,10,7,1,14,8,17,0.02,6,Snow,265
2014-1-17,39,30,21,24,21,17,85,69,52,29.93,29.90,29.84,10,10,7,13,6,21,0.00,4,,226
2014-1-18,32,27,21,27,21,12,92,80,68,29.88,29.79,29.73,10,4,0,18,8,23,0.13,8,Fog-Snow,253
2014-1-19,31,23,15,20,14,9,80,69,58,29.85,29.73,29.60,10,7,2,20,10,29,T,7,Snow,232
2014-1-20,36,28,19,30,21,8,89,74,59,29.94,29.70,29.58,10,8,1,22,10,30,T,8,Snow,279
2014-1-21,19,10,1,9,3,-10,84,70,55,30.01,29.94,29.86,10,6,0,17,10,24,0.08,7,Snow,8
2014-1-22,9,2,-5,-6,-10,-14,72,61,49,30.06,29.98,29.92,10,10,10,22,12,29,0.00,1,,324
2014-1-23,14,6,-2,9,2,-7,91,75,58,30.30,30.13,30.05,10,6,0,17,7,21,0.02,6,Snow,242
2014-1-24,15,8,1,2,-3,-8,80,61,42,30.39,30.24,29.93,10,9,2,18,11,25,T,4,Snow,249
2014-1-25,22,19,15,16,8,-5,73,57,40,29.89,29.52,29.35,10,7,1,24,8,35,0.01,7,Snow,214
2014-1-26,25,16,7,11,4,-3,88,70,51,29.86,29.74,29.57,10,8,0,24,9,35,0.03,5,Snow,233
2014-1-27,33,21,9,22,7,-4,68,52,36,30.11,29.78,29.52,10,10,4,24,11,35,T,4,Snow,282
2014-1-28,11,6,1,-4,-7,-11,62,54,45,30.39,30.27,30.12,10,10,10,18,8,24,0.00,3,,246
2014-1-29,16,9,2,-4,-7,-10,69,55,40,30.31,30.18,30.11,10,10,10,20,8,24,0.00,1,,231
2014-1-30,29,15,1,4,-1,-6,75,53,31,30.43,30.30,30.12,10,10,10,16,5,24,0.00,0,,222
2014-1-31,32,26,20,17,9,3,58,49,39,30.22,30.13,30.05,10,10,10,14,5,24,0.00,5,,223